createdAt,value
2022-11-29T00:01:22.018Z,61.20
2022-11-29T00:03:49.038Z,53.22
2022-11-29T00:06:21.198Z,60.40
2022-11-29T00:08:48.781Z,55.35
2022-11-29T00:11:37.384Z,51.47
2022-11-29T00:14:05.116Z,57.95
2022-11-29T00:16:32.134Z,64.50
2022-11-29T00:18:59.158Z,69.82
2022-11-29T00:21:26.193Z,56.70
2022-11-29T00:23:54.147Z,54.75
2022-11-29T00:26:21.837Z,52.80
2022-11-29T00:28:48.794Z,55.47
2022-11-29T00:31:25.108Z,50.15
2022-11-29T00:33:52.136Z,49.03
2022-11-29T00:36:19.925Z,50.65
2022-11-29T00:38:47.009Z,51.20
2022-11-29T00:41:14.137Z,45.38
2022-11-29T00:43:41.580Z,50.85
2022-11-29T00:46:08.967Z,42.90
2022-11-29T00:48:36.536Z,46.67
2022-11-29T00:51:04.943Z,55.72
2022-11-29T00:53:32.433Z,47.97
2022-11-29T00:55:59.455Z,50.08
2022-11-29T00:58:26.697Z,47.60
2022-11-29T01:00:54.126Z,51.83
2022-11-29T01:03:21.576Z,49.33
2022-11-29T01:05:49.282Z,45.45
2022-11-29T01:08:16.720Z,58.35
2022-11-29T01:10:43.846Z,49.10
2022-11-29T01:13:11.402Z,52.22
2022-11-29T01:15:38.425Z,57.25
2022-11-29T01:18:05.501Z,50.20
2022-11-29T01:20:32.437Z,47.58
2022-11-29T01:22:59.433Z,44.50
2022-11-29T01:25:26.421Z,51.58
2022-11-29T01:27:54.378Z,48.88
2022-11-29T01:30:21.749Z,48.33
2022-11-29T01:32:48.746Z,50.08
2022-11-29T01:35:15.704Z,47.75
2022-11-29T01:37:42.709Z,56.75
2022-11-29T01:40:09.957Z,50.22
2022-11-29T01:42:36.872Z,46.20
2022-11-29T01:45:08.215Z,51.90
2022-11-29T01:47:39.772Z,49.45
2022-11-29T01:50:08.352Z,47.00
2022-11-29T01:52:35.378Z,49.38
2022-11-29T01:55:05.447Z,46.03
2022-11-29T01:57:33.776Z,46.75
2022-11-29T02:00:11.059Z,47.78
2022-11-29T02:02:43.226Z,49.33
2022-11-29T02:05:10.512Z,48.92
2022-11-29T02:07:37.964Z,48.92
2022-11-29T02:10:06.250Z,47.22
2022-11-29T02:12:36.902Z,49.75
2022-11-29T02:15:13.846Z,45.47
2022-11-29T02:18:05.370Z,47.58
2022-11-29T02:20:47.523Z,55.88
2022-11-29T02:23:48.248Z,49.75
2022-11-29T02:26:52.704Z,49.53
2022-11-29T02:29:34.849Z,44.17
2022-11-29T02:32:38.768Z,47.85
2022-11-29T02:35:25.412Z,42.63
2022-11-29T02:38:18.557Z,44.92
2022-11-29T02:41:05.220Z,43.30
2022-11-29T02:43:58.208Z,46.38
2022-11-29T02:46:34.157Z,47.70
2022-11-29T02:49:50.406Z,43.38
2022-11-29T02:52:22.677Z,48.10
2022-11-29T02:55:10.981Z,44.70
2022-11-29T02:58:09.069Z,47.20
2022-11-29T03:00:39.394Z,41.88
2022-11-29T03:03:18.456Z,45.35
2022-11-29T03:06:09.196Z,46.97
2022-11-29T03:08:43.428Z,40.88
2022-11-29T03:11:32.127Z,42.58
2022-11-29T03:14:15.421Z,46.08
2022-11-29T03:17:04.997Z,41.22
2022-11-29T03:19:50.870Z,44.53
2022-11-29T03:22:30.396Z,44.10
2022-11-29T03:25:25.178Z,44.72
2022-11-29T03:28:06.047Z,43.97
2022-11-29T03:33:19.028Z,43.95
2022-11-29T03:36:00.572Z,46.95
2022-11-29T03:38:39.951Z,47.60
2022-11-29T03:41:21.014Z,45.97
2022-11-29T03:44:04.363Z,43.95
2022-11-29T03:46:46.982Z,47.33
2022-11-29T03:49:31.734Z,44.05
2022-11-29T03:52:01.757Z,49.17
2022-11-29T03:54:37.041Z,48.38
2022-11-29T03:57:04.305Z,48.47
2022-11-29T04:00:00.010Z,49.55
2022-11-29T04:02:48.746Z,48.53
2022-11-29T04:05:37.540Z,52.50
2022-11-29T04:08:42.755Z,50.15
2022-11-29T04:11:55.191Z,51.55
2022-11-29T04:14:32.033Z,52.78
2022-11-29T04:17:20.036Z,53.03
2022-11-29T04:20:02.089Z,54.67
2022-11-29T04:23:18.949Z,49.53
2022-11-29T04:25:51.985Z,51.75
2022-11-29T04:28:37.571Z,48.72
2022-11-29T04:31:26.369Z,54.17
2022-11-29T04:33:59.413Z,50.03
2022-11-29T04:37:09.024Z,54.78
2022-11-29T04:40:01.334Z,52.63
2022-11-29T04:42:39.286Z,49.97
2022-11-29T04:45:21.796Z,52.90
2022-11-29T04:48:22.295Z,51.05
2022-11-29T04:50:55.461Z,58.35
2022-11-29T04:53:36.744Z,52.55
2022-11-29T04:56:48.232Z,57.88
2022-11-29T04:59:41.755Z,54.15
2022-11-29T05:02:14.739Z,59.85
2022-11-29T05:05:02.673Z,59.90
2022-11-29T05:07:53.537Z,65.68
2022-11-29T05:13:19.694Z,65.00
2022-11-29T05:16:08.844Z,64.93
2022-11-29T05:19:12.611Z,61.85
2022-11-29T05:21:48.894Z,60.70
2022-11-29T05:24:51.565Z,62.47
2022-11-29T05:27:45.795Z,68.28
2022-11-29T05:30:17.401Z,67.00
2022-11-29T05:33:15.399Z,69.50
2022-11-29T05:35:53.946Z,65.47
2022-11-29T05:38:39.618Z,64.03
2022-11-29T05:41:26.888Z,74.30
2022-11-29T05:44:18.745Z,69.97
2022-11-29T05:46:56.306Z,78.40
2022-11-29T05:49:41.799Z,79.25
2022-11-29T05:52:24.834Z,82.97
2022-11-29T05:55:00.837Z,80.80
2022-11-29T05:58:30.058Z,79.15
2022-11-29T06:01:07.889Z,87.13
2022-11-29T06:03:41.452Z,96.72
2022-11-29T06:06:31.885Z,91.32
2022-11-29T06:09:28.334Z,95.68
2022-11-29T06:12:05.812Z,94.38
2022-11-29T06:14:57.146Z,97.13
2022-11-29T06:17:47.162Z,91.65
2022-11-29T06:20:44.730Z,91.00
2022-11-29T06:23:36.950Z,86.93
2022-11-29T06:26:38.029Z,80.72
2022-11-29T06:29:37.894Z,86.68
2022-11-29T06:32:41.110Z,87.82
2022-11-29T06:35:29.567Z,80.90
2022-11-29T06:37:58.288Z,81.78
2022-11-29T06:40:25.721Z,81.32
2022-11-29T06:42:52.672Z,75.15
2022-11-29T06:45:20.034Z,74.63
2022-11-29T06:47:53.598Z,74.75
2022-11-29T06:50:32.725Z,73.30
2022-11-29T06:53:41.771Z,74.22
2022-11-29T06:56:40.639Z,73.50
2022-11-29T06:59:26.393Z,73.68
2022-11-29T07:02:21.988Z,68.65
2022-11-29T07:04:57.013Z,72.47
2022-11-29T07:07:24.378Z,65.43
2022-11-29T07:09:53.953Z,67.15
2022-11-29T07:12:21.295Z,63.55
2022-11-29T07:14:48.654Z,64.40
2022-11-29T07:17:15.538Z,61.97
2022-11-29T07:20:09.230Z,61.92
2022-11-29T07:23:20.885Z,64.07
2022-11-29T07:26:12.051Z,54.63
2022-11-29T07:28:53.802Z,53.28
2022-11-29T07:31:51.094Z,55.65
2022-11-29T07:34:40.269Z,53.88
2022-11-29T07:37:28.496Z,56.17
2022-11-29T07:40:08.863Z,52.13
2022-11-29T07:42:47.524Z,48.90
2022-11-29T07:45:27.836Z,51.25
2022-11-29T07:47:55.297Z,49.97
2022-11-29T07:50:22.546Z,48.80
2022-11-29T07:52:49.709Z,54.42
2022-11-29T07:55:25.239Z,46.90
2022-11-29T07:57:53.019Z,61.83
2022-11-29T08:00:23.564Z,50.45
2022-11-29T08:02:51.516Z,57.47
2022-11-29T08:05:19.126Z,61.80
2022-11-29T08:07:47.641Z,60.05
2022-11-29T08:10:16.499Z,52.72
2022-11-29T08:12:45.445Z,51.67
2022-11-29T08:15:13.637Z,62.20
2022-11-29T08:17:40.614Z,59.65
2022-11-29T08:20:08.760Z,51.35
2022-11-29T08:22:35.989Z,50.17
2022-11-29T08:25:03.945Z,55.13
2022-11-29T08:27:31.374Z,59.30
2022-11-29T08:29:58.594Z,51.30
2022-11-29T08:32:26.570Z,56.20
2022-11-29T08:34:53.497Z,47.30
2022-11-29T08:37:20.629Z,47.72
2022-11-29T08:39:47.629Z,50.25
2022-11-29T08:42:14.632Z,53.47
2022-11-29T08:44:41.609Z,57.17
2022-11-29T08:47:28.980Z,47.70
2022-11-29T08:50:01.921Z,48.08
2022-11-29T08:52:52.819Z,51.15
2022-11-29T08:57:48.820Z,48.90
2022-11-29T09:00:16.350Z,48.88
2022-11-29T09:02:43.498Z,56.22
2022-11-29T09:05:12.121Z,41.83
2022-11-29T09:07:39.372Z,47.50
2022-11-29T09:10:08.641Z,42.80
2022-11-29T09:12:36.799Z,42.17
2022-11-29T09:15:09.128Z,43.50
2022-11-29T09:17:36.236Z,43.72
2022-11-29T09:20:04.349Z,39.97
2022-11-29T09:22:31.636Z,40.97
2022-11-29T09:24:58.590Z,42.38
2022-11-29T09:27:25.586Z,41.20
2022-11-29T09:29:52.618Z,66.47
2022-11-29T09:32:19.541Z,60.03
2022-11-29T09:34:46.760Z,55.45
2022-11-29T09:37:13.854Z,43.97
2022-11-29T09:39:41.984Z,93.95
2022-11-29T09:42:14.955Z,68.03
2022-11-29T09:44:56.614Z,61.05
2022-11-29T09:47:42.082Z,51.58
2022-11-29T09:50:24.001Z,53.90
2022-11-29T09:53:11.135Z,78.50
2022-11-29T09:56:02.279Z,42.35
2022-11-29T09:58:33.183Z,53.83
2022-11-29T10:01:06.533Z,42.40
2022-11-29T10:03:39.210Z,44.90
2022-11-29T10:06:22.282Z,39.92
2022-11-29T10:08:58.563Z,39.20
2022-11-29T10:11:28.550Z,40.38
2022-11-29T10:14:04.144Z,38.63
2022-11-29T10:16:37.230Z,37.22
2022-11-29T10:19:27.301Z,37.53
2022-11-29T10:22:06.887Z,54.90
2022-11-29T10:24:34.288Z,46.47
2022-11-29T10:27:01.523Z,46.30
2022-11-29T10:29:28.525Z,47.95
2022-11-29T10:31:57.088Z,58.83
2022-11-29T10:34:26.560Z,40.25
2022-11-29T10:36:58.877Z,34.88
2022-11-29T10:39:45.708Z,37.45
2022-11-29T10:42:36.778Z,40.60
2022-11-29T10:45:06.493Z,39.80
2022-11-29T10:47:33.501Z,58.00
2022-11-29T10:50:00.443Z,88.88
2022-11-29T10:52:27.803Z,48.90
2022-11-29T10:54:58.306Z,45.20
2022-11-29T10:57:25.366Z,44.28
2022-11-29T11:00:04.957Z,46.33
2022-11-29T11:02:32.207Z,34.00
2022-11-29T11:04:59.705Z,32.55
2022-11-29T11:07:32.112Z,31.95
2022-11-29T11:10:00.259Z,38.70
2022-11-29T11:12:31.031Z,42.55
2022-11-29T11:17:55.959Z,30.08
2022-11-29T11:23:05.099Z,40.20
2022-11-29T11:28:20.793Z,67.00
2022-11-29T11:31:09.270Z,40.72
2022-11-29T11:33:39.083Z,39.30
2022-11-29T11:36:14.974Z,47.28
2022-11-29T11:38:57.570Z,68.85
2022-11-29T11:41:45.422Z,35.28
2022-11-29T11:44:46.571Z,39.17
2022-11-29T11:47:18.377Z,53.20
2022-11-29T11:50:00.590Z,36.97
2022-11-29T11:52:29.976Z,35.30
2022-11-29T11:55:03.596Z,55.35
2022-11-29T11:57:30.774Z,112.57
2022-11-29T12:00:04.978Z,49.97
2022-11-29T12:02:38.031Z,52.75
2022-11-29T12:05:11.065Z,43.85
2022-11-29T12:08:07.340Z,65.68
2022-11-29T12:10:35.239Z,47.67
2022-11-29T12:13:02.912Z,46.30
2022-11-29T12:15:36.490Z,38.30
2022-11-29T12:18:12.681Z,39.58
2022-11-29T12:20:42.963Z,43.72
2022-11-29T12:23:22.505Z,42.00
2022-11-29T12:25:53.082Z,31.75
2022-11-29T12:28:21.247Z,35.00
2022-11-29T12:31:17.634Z,35.42
2022-11-29T12:33:50.644Z,33.38
2022-11-29T12:36:26.612Z,33.35
2022-11-29T12:39:21.056Z,40.10
2022-11-29T12:42:12.421Z,52.70
2022-11-29T12:44:52.520Z,45.92
2022-11-29T12:47:57.749Z,86.07
2022-11-29T12:50:44.184Z,48.92
2022-11-29T12:53:34.320Z,59.45
2022-11-29T12:56:07.770Z,41.63
2022-11-29T12:58:58.849Z,41.88
2022-11-29T13:01:51.500Z,55.08
2022-11-29T13:04:38.142Z,35.67
2022-11-29T13:07:20.251Z,60.78
2022-11-29T13:09:53.224Z,47.53
2022-11-29T13:12:42.457Z,40.53
2022-11-29T13:15:18.863Z,39.20
2022-11-29T13:18:03.986Z,52.38
2022-11-29T13:21:10.112Z,45.03
2022-11-29T13:24:10.534Z,38.50
2022-11-29T13:26:39.256Z,37.42
2022-11-29T13:29:06.941Z,50.22
2022-11-29T13:31:34.145Z,41.50
2022-11-29T13:34:07.453Z,62.00
2022-11-29T13:36:56.262Z,32.47
2022-11-29T13:39:23.223Z,39.63
2022-11-29T13:42:02.537Z,34.00
2022-11-29T13:45:03.995Z,39.28
2022-11-29T13:47:31.069Z,34.72
2022-11-29T13:50:35.828Z,35.08
2022-11-29T13:53:05.402Z,41.35
2022-11-29T13:55:33.367Z,42.92
2022-11-29T13:58:19.663Z,34.95
2022-11-29T14:00:46.601Z,36.63
2022-11-29T14:03:28.743Z,35.17
2022-11-29T14:06:01.767Z,32.50
2022-11-29T14:09:16.817Z,33.67
2022-11-29T14:11:27.808Z,35.08
2022-11-29T14:14:03.112Z,35.67
2022-11-29T14:16:38.409Z,37.45
2022-11-29T14:19:14.301Z,32.47
2022-11-29T14:21:59.513Z,35.67
2022-11-29T14:24:32.664Z,37.25
2022-11-29T14:27:12.892Z,36.17
2022-11-29T14:29:53.116Z,38.92
2022-11-29T14:32:46.229Z,34.40
2022-11-29T14:35:13.523Z,53.00
2022-11-29T14:37:44.510Z,42.92
2022-11-29T14:40:42.533Z,41.13
2022-11-29T14:43:24.966Z,42.85
2022-11-29T14:46:16.212Z,99.95
2022-11-29T14:48:55.366Z,58.25
2022-11-29T14:51:24.373Z,60.03
2022-11-29T14:54:19.888Z,56.50
2022-11-29T14:56:50.446Z,61.85
2022-11-29T14:59:40.827Z,40.10
2022-11-29T15:02:15.915Z,47.20
2022-11-29T15:04:43.309Z,51.20
2022-11-29T15:07:17.268Z,46.63
2022-11-29T15:09:44.602Z,37.42
2022-11-29T15:12:43.687Z,59.70
2022-11-29T15:15:13.839Z,39.40
2022-11-29T15:18:01.272Z,43.17
2022-11-29T15:21:05.811Z,53.80
2022-11-29T15:23:43.097Z,48.90
2022-11-29T15:26:21.042Z,43.40
2022-11-29T15:28:48.267Z,39.67
2022-11-29T15:31:18.579Z,40.05
2022-11-29T15:33:47.669Z,45.13
2022-11-29T15:36:19.863Z,49.15
2022-11-29T15:38:49.072Z,79.47
2022-11-29T15:41:30.007Z,62.92
2022-11-29T15:44:02.536Z,74.00
2022-11-29T15:46:31.815Z,94.05
2022-11-29T15:49:23.293Z,96.65
2022-11-29T15:52:07.746Z,59.00
2022-11-29T15:54:39.645Z,71.13
2022-11-29T15:57:14.202Z,54.75
2022-11-29T15:59:43.571Z,46.55
2022-11-29T16:02:28.149Z,47.88
2022-11-29T16:05:14.920Z,52.58
2022-11-29T16:07:43.397Z,81.38
2022-11-29T16:10:18.772Z,52.65
2022-11-29T16:12:58.291Z,62.80
2022-11-29T16:15:34.655Z,65.70
2022-11-29T16:18:15.692Z,55.80
2022-11-29T16:20:42.836Z,45.95
2022-11-29T16:23:16.364Z,45.22
2022-11-29T16:25:49.488Z,42.38
2022-11-29T16:28:16.564Z,37.25
2022-11-29T16:30:43.942Z,38.50
2022-11-29T16:33:21.851Z,36.15
2022-11-29T16:35:49.059Z,33.13
2022-11-29T16:38:22.320Z,38.45
2022-11-29T16:41:15.138Z,36.10
2022-11-29T16:43:47.219Z,36.80
2022-11-29T16:46:23.373Z,68.68
2022-11-29T16:48:50.852Z,40.65
2022-11-29T16:51:39.087Z,31.92
2022-11-29T16:54:26.706Z,39.45
2022-11-29T16:56:55.145Z,41.67
2022-11-29T16:59:27.905Z,48.42
2022-11-29T17:01:56.924Z,39.95
2022-11-29T17:04:25.313Z,53.35
2022-11-29T17:06:56.434Z,40.03
2022-11-29T17:09:28.867Z,48.70
2022-11-29T17:11:56.580Z,41.28
2022-11-29T17:14:23.639Z,45.13
2022-11-29T17:16:52.112Z,52.85
2022-11-29T17:19:22.153Z,43.95
2022-11-29T17:21:52.235Z,43.47
2022-11-29T17:24:20.591Z,35.47
2022-11-29T17:26:47.873Z,39.53
2022-11-29T17:29:15.866Z,32.83
2022-11-29T17:31:47.008Z,38.67
2022-11-29T17:34:14.152Z,30.13
2022-11-29T17:36:41.147Z,34.22
2022-11-29T17:39:08.618Z,31.13
2022-11-29T17:41:35.825Z,37.47
2022-11-29T17:44:03.439Z,35.67
2022-11-29T17:46:35.716Z,56.00
2022-11-29T17:49:07.304Z,37.67
2022-11-29T17:51:52.765Z,32.35
2022-11-29T17:54:21.302Z,33.05
2022-11-29T17:56:48.361Z,34.03
2022-11-29T17:59:15.278Z,34.78
2022-11-29T18:01:42.321Z,36.40
2022-11-29T18:04:09.331Z,34.33
2022-11-29T18:06:38.501Z,30.50
2022-11-29T18:09:07.129Z,31.00
2022-11-29T18:11:46.504Z,33.38
2022-11-29T18:14:16.190Z,31.08
2022-11-29T18:16:45.435Z,33.15
2022-11-29T18:19:15.550Z,33.50
2022-11-29T18:21:42.550Z,30.97
2022-11-29T18:24:10.160Z,35.08
2022-11-29T18:26:37.464Z,33.72
2022-11-29T18:29:05.881Z,34.13
2022-11-29T18:31:35.755Z,36.78
2022-11-29T18:34:07.386Z,38.43
2022-11-29T18:36:37.278Z,30.27
2022-11-29T18:39:07.304Z,37.17
2022-11-29T18:41:34.549Z,32.67
2022-11-29T18:44:04.536Z,39.35
2022-11-29T18:46:36.937Z,42.80
2022-11-29T18:49:05.783Z,44.47
2022-11-29T18:51:36.659Z,40.42
2022-11-29T18:54:04.129Z,40.58
2022-11-29T18:56:33.210Z,58.70
2022-11-29T18:59:10.901Z,66.22
2022-11-29T19:01:41.512Z,47.70
2022-11-29T19:04:10.993Z,34.55
2022-11-29T19:06:41.051Z,36.13
2022-11-29T19:09:15.561Z,39.83
2022-11-29T19:11:42.700Z,38.78
2022-11-29T19:14:13.580Z,42.50
2022-11-29T19:16:45.595Z,41.83
2022-11-29T19:19:12.554Z,60.38
2022-11-29T19:21:40.528Z,69.25
2022-11-29T19:24:15.222Z,60.72
2022-11-29T19:26:45.100Z,43.20
2022-11-29T19:29:15.831Z,42.63
2022-11-29T19:31:43.554Z,51.38
2022-11-29T19:34:11.031Z,43.95
2022-11-29T19:36:43.637Z,46.70
2022-11-29T19:39:13.556Z,55.67
2022-11-29T19:41:42.730Z,45.30
2022-11-29T19:44:09.907Z,44.15
2022-11-29T19:46:40.411Z,39.58
2022-11-29T19:49:08.429Z,44.35
2022-11-29T19:51:36.509Z,41.28
2022-11-29T19:54:05.544Z,44.40
2022-11-29T19:56:32.909Z,37.15
2022-11-29T19:59:00.207Z,32.42
2022-11-29T20:01:37.807Z,32.10
2022-11-29T20:04:09.573Z,42.42
2022-11-29T20:06:36.735Z,36.08
2022-11-29T20:09:04.001Z,35.60
2022-11-29T20:11:34.123Z,35.35
2022-11-29T20:14:02.079Z,33.78
2022-11-29T20:16:30.102Z,31.08
2022-11-29T20:18:57.606Z,36.90
2022-11-29T20:21:30.081Z,32.28
2022-11-29T20:24:01.925Z,32.75
2022-11-29T20:26:30.807Z,43.42
2022-11-29T20:28:57.941Z,31.70
2022-11-29T20:31:25.100Z,33.10
2022-11-29T20:33:53.646Z,32.55
2022-11-29T20:36:32.696Z,34.20
2022-11-29T20:39:18.236Z,32.75
2022-11-29T20:42:00.871Z,28.48
2022-11-29T20:44:38.598Z,31.17
2022-11-29T20:47:17.752Z,36.05
2022-11-29T20:49:45.077Z,32.20
2022-11-29T20:52:33.378Z,30.83
2022-11-29T20:55:00.404Z,35.38
2022-11-29T20:57:27.556Z,35.40
2022-11-29T20:59:54.693Z,37.17
2022-11-29T21:02:21.960Z,34.55
2022-11-29T21:04:49.284Z,37.00
2022-11-29T21:07:16.480Z,34.38
2022-11-29T21:09:43.521Z,38.40
2022-11-29T21:12:11.194Z,40.17
2022-11-29T21:14:38.499Z,44.65
2022-11-29T21:17:05.766Z,46.47
2022-11-29T21:19:33.046Z,46.47
2022-11-29T21:22:20.571Z,49.00
2022-11-29T21:25:02.264Z,49.00
2022-11-29T21:27:34.167Z,53.33
2022-11-29T21:30:05.954Z,55.88
2022-11-29T21:32:34.120Z,58.83
2022-11-29T21:35:01.032Z,56.05
2022-11-29T21:37:30.538Z,53.53
2022-11-29T21:39:57.960Z,50.78
2022-11-29T21:42:25.014Z,50.65
2022-11-29T21:44:51.925Z,50.50
2022-11-29T21:47:18.875Z,51.72
2022-11-29T21:49:47.070Z,50.88
2022-11-29T21:52:20.661Z,50.58
2022-11-29T21:54:49.485Z,47.00
2022-11-29T21:57:17.066Z,50.03
2022-11-29T21:59:43.996Z,44.67
2022-11-29T22:02:11.146Z,48.00
2022-11-29T22:04:38.215Z,41.17
2022-11-29T22:07:05.149Z,40.55
2022-11-29T22:09:32.100Z,36.92
2022-11-29T22:11:59.286Z,36.63
2022-11-29T22:14:26.247Z,39.67
2022-11-29T22:16:57.177Z,39.85
2022-11-29T22:19:26.257Z,37.45
2022-11-29T22:21:56.379Z,35.40
2022-11-29T22:24:25.632Z,36.85
2022-11-29T22:26:53.165Z,33.60
2022-11-29T22:29:20.602Z,37.88
2022-11-29T22:31:49.915Z,35.45
2022-11-29T22:34:17.429Z,36.08
2022-11-29T22:36:44.708Z,39.58
2022-11-29T22:39:12.014Z,36.92
2022-11-29T22:41:39.989Z,37.28
2022-11-29T22:44:07.358Z,34.28
2022-11-29T22:46:37.599Z,34.58
2022-11-29T22:49:04.624Z,35.08
2022-11-29T22:51:33.614Z,37.67
2022-11-29T22:54:03.910Z,39.00
2022-11-29T22:56:33.888Z,36.38
2022-11-29T22:59:00.823Z,38.17
2022-11-29T23:01:30.014Z,36.17
2022-11-29T23:03:58.978Z,38.08
2022-11-29T23:06:33.356Z,31.88
2022-11-29T23:09:05.775Z,34.47
2022-11-29T23:11:33.431Z,32.08
2022-11-29T23:14:00.336Z,34.17
2022-11-29T23:16:28.900Z,33.15
2022-11-29T23:18:58.513Z,35.70
2022-11-29T23:21:28.112Z,30.55
2022-11-29T23:23:56.849Z,34.78
2022-11-29T23:26:25.279Z,33.30
2022-11-29T23:28:52.961Z,33.50
2022-11-29T23:31:20.645Z,36.08
2022-11-29T23:33:47.687Z,33.72
2022-11-29T23:36:15.596Z,32.10
2022-11-29T23:38:43.051Z,35.10
2022-11-29T23:41:11.822Z,33.63
2022-11-29T23:43:40.630Z,33.28
2022-11-29T23:46:14.667Z,31.98
2022-11-29T23:48:42.195Z,31.77
2022-11-29T23:51:10.159Z,32.67
2022-11-29T23:53:37.082Z,33.78
2022-11-29T23:56:06.970Z,35.42
2022-11-29T23:58:34.649Z,31.87
